Huvudsida
METAR-TAF:

METAR-TAF

Flygplatser :

Halmstad City Airport

Halmstad, Sverige

latitud: 56-41N, longitud: 012-50E, höjd: 30 m

Aktuellt väderrapport

Denna rapport gjordes för 48 minuter sedan, klockan 22:20 UTC
Vind 5 kt från väst/sydväst
Temperatur 14°C
Fuktighet 88%
Tryck 1017 hPa
Sikt 10 km eller mer

METAR: ESMT 202220Z AUTO 25005KT 9999 NCD 14/12 Q1017

Tid: 01:08 (23:08 UTC)

Väderprognos

Denna rapport gjordes för 8 timmar och 56 minuter sedan, klockan 14:12 UTC
Prognos gäller från 20 kl. 15 UTC till 20 kl. 19 UTC
Vind 12 kt från väst
Sikt 10 km eller mer
Inga moln under 1 500 m eller inga cumulonimbus

TAF: ESMT 201412Z 2015/2019 27012KT CAVOK

Aktuella väderrapporter och prognoser från 4000 flygplatser (METAR- och TAF-rapporter).

De tillgängliga stationerna syns som gula och röda prickar på kartan.

För musen över prickarna för att se namnen på stationerna.

Klicka sedan för att få väderrapporter och prognoser.

För att ändra kartan: Klicka på de gröna knapparna med ett svart kors på för att zooma in; den gröna knappen med ett streck på för att zooma ut; eller på de gröna pilarna för angränsande kartor.


METAR-TAF: